Metar Aviation Weather Data EGGD Bristol International

13°C Temp
13°C Dewpoint
100% Humidity
Temperature
11 KM/H
7 MPH
6 KTS
20°
North North
East

Wind Speed
Overcast
Conditions
Pressure 1020 (hPa) - 30.12 (in)
Visibility 4.4 (mi) - 7.0 (km)

Current Conditions
EGGD
Bristol International
Metar :EGGD 260320Z AUTO 02006KT 7000 OVC021 13/13 Q1020
Sat 26th May 04:20 am

Bristol International
  Metar Aviation API Data Provided by https://www.checkwx.com/ PHP scripts by weather34.com ©2018